createdAt,value
2024-05-09T00:00:45.977Z,6.80
2024-05-09T00:03:13.476Z,6.80
2024-05-09T00:05:41.655Z,6.80
2024-05-09T00:08:10.022Z,6.70
2024-05-09T00:10:39.406Z,6.60
2024-05-09T00:13:08.623Z,6.60
2024-05-09T00:15:36.517Z,6.40
2024-05-09T00:18:05.389Z,6.30
2024-05-09T00:20:38.511Z,6.40
2024-05-09T00:23:12.986Z,6.50
2024-05-09T00:25:42.925Z,6.50
2024-05-09T00:28:12.524Z,6.60
2024-05-09T00:30:39.838Z,6.60
2024-05-09T00:33:08.995Z,6.50
2024-05-09T00:35:38.096Z,6.50
2024-05-09T00:38:06.966Z,6.60
2024-05-09T00:40:40.622Z,6.40
2024-05-09T00:43:11.389Z,6.30
2024-05-09T00:45:39.030Z,6.20
2024-05-09T00:48:08.659Z,6.10
2024-05-09T00:50:41.419Z,6.10
2024-05-09T00:53:15.486Z,6.00
2024-05-09T00:55:45.240Z,6.00
2024-05-09T00:58:15.868Z,5.90
2024-05-09T01:00:44.421Z,5.90
2024-05-09T01:03:15.237Z,6.10
2024-05-09T01:05:43.615Z,6.00
2024-05-09T01:08:12.179Z,5.80
2024-05-09T01:10:43.728Z,5.80
2024-05-09T01:13:12.251Z,5.80
2024-05-09T01:15:39.321Z,5.80
2024-05-09T01:18:11.813Z,5.70
2024-05-09T01:20:43.227Z,5.80
2024-05-09T01:23:14.512Z,5.80
2024-05-09T01:25:43.571Z,6.00
2024-05-09T01:28:10.892Z,6.00
2024-05-09T01:30:38.651Z,5.90
2024-05-09T01:33:08.552Z,5.80
2024-05-09T01:35:38.937Z,5.80
2024-05-09T01:38:06.947Z,5.90
2024-05-09T01:40:38.560Z,5.80
2024-05-09T01:43:11.539Z,5.70
2024-05-09T01:45:40.341Z,5.70
2024-05-09T01:48:08.940Z,5.60
2024-05-09T01:50:40.243Z,5.40
2024-05-09T01:53:14.755Z,5.40
2024-05-09T01:55:45.399Z,5.30
2024-05-09T01:58:13.655Z,5.40
2024-05-09T02:00:48.105Z,5.30
2024-05-09T02:03:17.294Z,5.20
2024-05-09T02:05:47.370Z,5.40
2024-05-09T02:08:17.464Z,5.40
2024-05-09T02:10:47.274Z,5.40
2024-05-09T02:13:16.363Z,5.50
2024-05-09T02:15:43.675Z,5.50
2024-05-09T02:18:11.208Z,5.40
2024-05-09T02:20:40.882Z,5.30
2024-05-09T02:23:09.429Z,5.20
2024-05-09T02:25:36.806Z,5.10
2024-05-09T02:28:04.057Z,5.30
2024-05-09T02:30:39.286Z,5.30
2024-05-09T02:33:13.713Z,5.40
2024-05-09T02:35:43.084Z,5.20
2024-05-09T02:38:11.225Z,5.10
2024-05-09T02:40:39.663Z,5.00
2024-05-09T02:43:10.423Z,5.00
2024-05-09T02:45:39.956Z,4.80
2024-05-09T02:48:13.409Z,4.80
2024-05-09T02:50:42.622Z,4.80
2024-05-09T02:53:12.061Z,4.70
2024-05-09T02:55:39.832Z,4.70
2024-05-09T02:58:32.127Z,4.70
2024-05-09T03:00:59.134Z,4.80
2024-05-09T03:03:26.827Z,4.70
2024-05-09T03:05:54.132Z,4.80
2024-05-09T03:08:21.326Z,4.90
2024-05-09T03:10:48.448Z,5.00
2024-05-09T03:13:16.342Z,5.00
2024-05-09T03:15:44.786Z,5.10
2024-05-09T03:18:13.733Z,5.00
2024-05-09T03:20:41.093Z,4.80
2024-05-09T03:23:09.793Z,4.90
2024-05-09T03:25:38.334Z,4.90
2024-05-09T03:28:06.185Z,4.90
2024-05-09T03:30:40.506Z,5.00
2024-05-09T03:33:14.402Z,4.80
2024-05-09T03:35:44.028Z,4.80
2024-05-09T03:38:12.344Z,4.90
2024-05-09T03:40:51.206Z,4.80
2024-05-09T03:43:20.018Z,4.70
2024-05-09T03:45:49.473Z,4.60
2024-05-09T03:48:17.031Z,4.50
2024-05-09T03:50:44.638Z,4.50
2024-05-09T03:53:13.420Z,4.50
2024-05-09T03:55:40.907Z,4.40
2024-05-09T03:58:08.843Z,4.50
2024-05-09T04:00:39.234Z,4.50
2024-05-09T04:03:10.497Z,4.40
2024-05-09T04:05:40.860Z,4.60
2024-05-09T04:08:09.496Z,4.70
2024-05-09T04:10:36.707Z,4.80
2024-05-09T04:13:04.371Z,4.80
2024-05-09T04:15:32.315Z,4.80
2024-05-09T04:18:00.360Z,4.80
2024-05-09T04:20:36.155Z,4.70
2024-05-09T04:23:08.068Z,4.80
2024-05-09T04:25:37.074Z,4.70
2024-05-09T04:28:04.407Z,4.70
2024-05-09T04:30:37.980Z,4.90
2024-05-09T04:33:10.601Z,4.80
2024-05-09T04:35:39.701Z,4.80
2024-05-09T04:38:07.834Z,4.80
2024-05-09T04:40:36.967Z,4.80
2024-05-09T04:43:19.033Z,4.80
2024-05-09T04:45:46.458Z,4.90
2024-05-09T04:48:13.665Z,4.80
2024-05-09T04:50:41.065Z,4.80
2024-05-09T04:53:10.492Z,4.90
2024-05-09T04:55:39.161Z,5.20
2024-05-09T04:58:10.069Z,5.30
2024-05-09T05:00:39.140Z,5.40
2024-05-09T05:03:11.034Z,5.50
2024-05-09T05:05:41.827Z,5.60
2024-05-09T05:08:17.238Z,5.80
2024-05-09T05:10:46.274Z,5.90
2024-05-09T05:13:21.275Z,5.90
2024-05-09T05:15:51.264Z,6.00
2024-05-09T05:18:18.881Z,6.00
2024-05-09T05:20:46.331Z,6.10
2024-05-09T05:23:16.159Z,6.40
2024-05-09T05:25:43.802Z,6.60
2024-05-09T05:28:11.303Z,6.70
2024-05-09T05:30:39.256Z,6.80
2024-05-09T05:33:09.781Z,7.00
2024-05-09T05:35:37.577Z,7.10
2024-05-09T05:38:06.353Z,7.30
2024-05-09T05:40:37.088Z,7.40
2024-05-09T05:43:16.312Z,7.40
2024-05-09T05:45:43.697Z,7.60
2024-05-09T05:48:10.853Z,7.70
2024-05-09T05:50:38.962Z,7.80
2024-05-09T05:53:10.297Z,7.90
2024-05-09T05:55:39.052Z,8.00
2024-05-09T05:58:09.505Z,8.20
2024-05-09T06:00:39.273Z,8.40
2024-05-09T06:03:10.412Z,8.70
2024-05-09T06:05:46.298Z,9.10
2024-05-09T06:08:13.501Z,9.60
2024-05-09T06:10:41.652Z,10.20
2024-05-09T06:13:13.012Z,10.80
2024-05-09T06:15:41.272Z,11.40
2024-05-09T06:18:09.980Z,11.90
2024-05-09T06:20:39.774Z,12.60
2024-05-09T06:23:07.538Z,13.20
2024-05-09T06:25:38.620Z,13.80
2024-05-09T06:28:06.399Z,14.10
2024-05-09T06:30:40.779Z,14.20
2024-05-09T06:33:11.936Z,14.10
2024-05-09T06:35:41.121Z,14.20
2024-05-09T06:38:11.991Z,14.40
2024-05-09T06:40:42.450Z,14.70
2024-05-09T06:43:15.740Z,15.00
2024-05-09T06:45:47.035Z,15.20
2024-05-09T06:48:14.526Z,15.60
2024-05-09T06:50:42.019Z,15.80
2024-05-09T06:53:09.357Z,16.20
2024-05-09T06:55:37.284Z,16.50
2024-05-09T06:58:06.961Z,16.60
2024-05-09T07:00:39.202Z,16.70
2024-05-09T07:03:09.896Z,16.60
2024-05-09T07:05:37.594Z,16.90
2024-05-09T07:08:05.959Z,16.90
2024-05-09T07:10:36.147Z,16.90
2024-05-09T07:13:11.443Z,17.00
2024-05-09T07:15:38.826Z,17.10
2024-05-09T07:18:16.535Z,17.30
2024-05-09T07:20:45.656Z,17.50
2024-05-09T07:23:13.462Z,17.50
2024-05-09T07:25:41.363Z,17.70
2024-05-09T07:28:15.475Z,17.80
2024-05-09T07:30:43.427Z,17.70
2024-05-09T07:33:19.163Z,18.10
2024-05-09T07:35:49.552Z,18.20
2024-05-09T07:38:16.777Z,18.40
2024-05-09T07:40:43.840Z,18.80
2024-05-09T07:43:11.936Z,19.10
2024-05-09T07:45:48.791Z,19.20
2024-05-09T07:52:38.718Z,19.60
2024-05-09T07:53:49.622Z,19.60
2024-05-09T07:56:22.374Z,19.60
2024-05-09T07:58:53.056Z,19.60
2024-05-09T08:01:21.041Z,19.50
2024-05-09T08:03:49.997Z,19.50
2024-05-09T08:06:17.324Z,19.60
2024-05-09T08:08:50.777Z,19.80
2024-05-09T08:11:17.867Z,19.20
2024-05-09T08:13:45.405Z,18.70
2024-05-09T08:16:14.580Z,19.00
2024-05-09T08:18:48.831Z,19.50
2024-05-09T08:21:19.314Z,20.00
2024-05-09T08:23:47.817Z,20.20
2024-05-09T08:26:14.839Z,20.20
2024-05-09T08:28:41.818Z,20.20
2024-05-09T08:31:10.745Z,20.30
2024-05-09T08:33:47.141Z,20.20
2024-05-09T08:36:14.686Z,20.40
2024-05-09T08:38:48.158Z,20.50
2024-05-09T08:41:17.875Z,20.60
2024-05-09T08:43:44.943Z,20.20
2024-05-09T08:46:13.520Z,20.00
2024-05-09T08:48:43.335Z,19.30
2024-05-09T08:51:10.918Z,18.90
2024-05-09T08:53:37.972Z,18.60
2024-05-09T08:56:09.266Z,18.50
2024-05-09T08:58:37.433Z,18.70
2024-05-09T09:01:07.667Z,19.20
2024-05-09T09:03:37.778Z,19.50
2024-05-09T09:06:14.548Z,19.20
2024-05-09T09:08:41.879Z,19.00
2024-05-09T09:11:08.910Z,18.80
2024-05-09T09:13:35.947Z,19.20
2024-05-09T09:16:04.206Z,19.70
2024-05-09T09:18:32.810Z,20.10
2024-05-09T09:21:01.171Z,20.30
2024-05-09T09:23:29.936Z,20.40
2024-05-09T09:26:01.206Z,20.30
2024-05-09T09:28:28.476Z,20.50
2024-05-09T09:31:02.995Z,20.80
2024-05-09T09:33:32.056Z,20.80
2024-05-09T09:36:01.719Z,20.70
2024-05-09T09:38:31.509Z,20.80
2024-05-09T09:41:01.474Z,21.00
2024-05-09T09:43:29.867Z,21.00
2024-05-09T09:45:59.935Z,20.70
2024-05-09T09:48:30.855Z,20.50
2024-05-09T09:50:59.534Z,19.90
2024-05-09T09:53:29.585Z,19.60
2024-05-09T09:55:57.775Z,19.50
2024-05-09T09:58:25.421Z,19.30
2024-05-09T10:00:53.663Z,18.50
2024-05-09T10:03:23.364Z,18.10
2024-05-09T10:05:50.824Z,18.30
2024-05-09T10:08:18.909Z,18.40
2024-05-09T10:10:50.135Z,18.80
2024-05-09T10:13:18.158Z,19.20
2024-05-09T10:15:48.146Z,19.60
2024-05-09T10:18:16.068Z,20.20
2024-05-09T10:20:44.696Z,21.10
2024-05-09T10:23:30.003Z,21.60
2024-05-09T10:26:02.407Z,21.50
2024-05-09T10:28:31.205Z,21.40
2024-05-09T10:31:16.082Z,20.60
2024-05-09T10:33:53.801Z,20.10
2024-05-09T10:36:22.565Z,20.60
2024-05-09T10:38:54.406Z,21.10
2024-05-09T10:41:24.033Z,21.40
2024-05-09T10:43:52.146Z,21.60
2024-05-09T10:46:20.054Z,22.10
2024-05-09T10:48:50.434Z,20.90
2024-05-09T10:51:21.912Z,20.30
2024-05-09T10:53:51.249Z,20.70
2024-05-09T10:56:18.941Z,20.80
2024-05-09T10:58:48.136Z,21.30
2024-05-09T11:01:16.957Z,21.40
2024-05-09T11:03:49.687Z,20.80
2024-05-09T11:06:17.978Z,20.50
2024-05-09T11:08:46.868Z,20.00
2024-05-09T11:11:15.923Z,19.50
2024-05-09T11:13:46.554Z,19.60
2024-05-09T11:16:21.707Z,19.20
2024-05-09T11:18:56.689Z,18.70
2024-05-09T11:21:25.254Z,18.80
2024-05-09T11:23:53.697Z,19.10
2024-05-09T11:26:22.385Z,19.20
2024-05-09T11:28:50.880Z,19.70
2024-05-09T11:31:18.398Z,20.30
2024-05-09T11:33:45.827Z,20.50
2024-05-09T11:36:16.023Z,20.90
2024-05-09T11:38:43.373Z,21.30
2024-05-09T11:41:18.225Z,21.60
2024-05-09T11:43:45.252Z,21.80
2024-05-09T11:46:12.754Z,21.80
2024-05-09T11:48:40.315Z,21.60
2024-05-09T11:51:09.989Z,21.30
2024-05-09T11:53:37.318Z,21.00
2024-05-09T11:56:04.809Z,20.90
2024-05-09T11:58:37.526Z,20.90
2024-05-09T12:01:05.286Z,20.70
2024-05-09T12:03:34.993Z,20.50
2024-05-09T12:06:02.763Z,20.50
2024-05-09T12:08:30.011Z,20.70
2024-05-09T12:10:57.484Z,21.00
2024-05-09T12:13:24.728Z,21.30
2024-05-09T12:15:51.821Z,21.00
2024-05-09T12:18:18.940Z,20.80
2024-05-09T12:20:46.404Z,20.90
2024-05-09T12:23:13.364Z,20.90
2024-05-09T12:25:44.328Z,21.00
2024-05-09T12:28:11.488Z,20.90
2024-05-09T12:30:41.651Z,21.20
2024-05-09T12:33:13.398Z,20.50
2024-05-09T12:35:44.370Z,20.30
2024-05-09T12:38:15.596Z,19.80
2024-05-09T12:40:43.683Z,19.80
2024-05-09T12:43:11.826Z,19.80
2024-05-09T12:45:40.184Z,19.70
2024-05-09T12:48:12.334Z,19.80
2024-05-09T12:50:41.246Z,20.00
2024-05-09T12:53:09.044Z,20.20
2024-05-09T12:55:44.189Z,20.40
2024-05-09T12:58:24.765Z,20.60
2024-05-09T13:00:52.579Z,20.80
2024-05-09T13:03:20.492Z,20.60
2024-05-09T13:05:48.414Z,20.50
2024-05-09T13:08:15.951Z,20.10
2024-05-09T13:10:43.408Z,19.80
2024-05-09T13:13:11.287Z,19.60
2024-05-09T13:15:38.864Z,19.40
2024-05-09T13:18:06.740Z,19.70
2024-05-09T13:20:36.089Z,20.20
2024-05-09T13:23:05.879Z,20.80
2024-05-09T13:25:36.509Z,21.30
2024-05-09T13:28:04.800Z,21.50
2024-05-09T13:30:39.668Z,21.70
2024-05-09T13:33:13.755Z,21.70
2024-05-09T13:35:46.631Z,21.60
2024-05-09T13:38:16.877Z,21.50
2024-05-09T13:40:44.452Z,21.30
2024-05-09T13:43:11.840Z,20.80
2024-05-09T13:45:39.743Z,20.60
2024-05-09T13:48:09.563Z,20.60
2024-05-09T13:50:37.354Z,20.80
2024-05-09T13:53:08.861Z,20.60
2024-05-09T13:55:39.708Z,20.30
2024-05-09T13:58:08.743Z,20.50
2024-05-09T14:00:45.935Z,20.80
2024-05-09T14:03:18.796Z,20.90
2024-05-09T14:05:48.034Z,20.90
2024-05-09T14:08:15.827Z,21.00
2024-05-09T14:10:46.481Z,20.90
2024-05-09T14:13:13.917Z,20.30
2024-05-09T14:15:41.352Z,20.10
2024-05-09T14:18:12.577Z,19.80
2024-05-09T14:20:44.261Z,19.60
2024-05-09T14:23:11.455Z,19.60
2024-05-09T14:25:42.600Z,19.60
2024-05-09T14:28:12.142Z,19.30
2024-05-09T14:30:40.012Z,19.40
2024-05-09T14:33:08.920Z,19.40
2024-05-09T14:35:38.520Z,19.20
2024-05-09T14:38:09.934Z,19.10
2024-05-09T14:40:42.238Z,19.20
2024-05-09T14:43:12.572Z,19.40
2024-05-09T14:45:40.482Z,20.20
2024-05-09T14:48:08.387Z,20.30
2024-05-09T14:50:39.691Z,20.10
2024-05-09T14:53:08.999Z,20.50
2024-05-09T14:55:38.870Z,21.00
2024-05-09T14:58:08.490Z,21.50
2024-05-09T15:00:46.799Z,21.70
2024-05-09T15:03:21.106Z,22.00
2024-05-09T15:05:49.828Z,22.20
2024-05-09T15:08:18.368Z,22.50
2024-05-09T15:10:46.016Z,22.20
2024-05-09T15:13:16.215Z,22.00
2024-05-09T15:15:44.236Z,21.60
2024-05-09T15:18:11.629Z,21.80
2024-05-09T15:20:40.983Z,21.90
2024-05-09T15:23:08.205Z,22.10
2024-05-09T15:25:36.667Z,22.40
2024-05-09T15:28:05.372Z,22.00
2024-05-09T15:30:34.234Z,21.50
2024-05-09T15:33:06.938Z,21.30
2024-05-09T15:35:36.058Z,21.30
2024-05-09T15:38:03.783Z,21.40
2024-05-09T15:40:38.502Z,21.60
2024-05-09T15:43:09.833Z,21.50
2024-05-09T15:45:38.418Z,21.60
2024-05-09T15:48:06.618Z,21.50
2024-05-09T15:50:38.889Z,21.30
2024-05-09T15:53:11.547Z,21.00
2024-05-09T15:55:39.722Z,20.50
2024-05-09T15:58:07.658Z,20.20
2024-05-09T16:00:39.975Z,19.90
2024-05-09T16:03:10.660Z,19.70
2024-05-09T16:05:38.506Z,19.90
2024-05-09T16:08:07.776Z,20.00
2024-05-09T16:10:38.683Z,20.10
2024-05-09T16:13:06.408Z,19.90
2024-05-09T16:15:33.819Z,19.60
2024-05-09T16:18:01.819Z,19.40
2024-05-09T16:20:38.064Z,19.40
2024-05-09T16:23:08.833Z,19.50
2024-05-09T16:25:39.092Z,19.30
2024-05-09T16:28:09.937Z,19.30
2024-05-09T16:30:39.409Z,19.10
2024-05-09T16:33:07.619Z,19.10
2024-05-09T16:35:35.600Z,19.10
2024-05-09T16:38:04.844Z,19.20
2024-05-09T16:40:38.563Z,19.10
2024-05-09T16:43:12.519Z,18.90
2024-05-09T16:45:41.565Z,18.80
2024-05-09T16:48:09.531Z,18.70
2024-05-09T16:50:37.166Z,18.60
2024-05-09T16:53:07.693Z,18.60
2024-05-09T16:55:36.141Z,18.50
2024-05-09T16:58:04.273Z,18.40
2024-05-09T17:00:40.042Z,18.30
2024-05-09T17:03:11.922Z,18.30
2024-05-09T17:05:41.450Z,18.40
2024-05-09T17:08:12.363Z,18.50
2024-05-09T17:10:42.201Z,18.40
2024-05-09T17:13:10.160Z,18.40
2024-05-09T17:15:43.879Z,18.60
2024-05-09T17:18:11.501Z,18.70
2024-05-09T17:20:38.549Z,18.80
2024-05-09T17:23:15.502Z,18.80
2024-05-09T17:25:43.837Z,18.80
2024-05-09T17:28:11.597Z,18.70
2024-05-09T17:30:40.979Z,18.60
2024-05-09T17:33:10.932Z,18.50
2024-05-09T17:35:38.998Z,18.50
2024-05-09T17:38:08.161Z,18.40
2024-05-09T17:40:37.397Z,18.40
2024-05-09T17:43:08.863Z,18.40
2024-05-09T17:45:38.961Z,18.40
2024-05-09T17:48:07.539Z,18.40
2024-05-09T17:50:37.602Z,18.30
2024-05-09T17:53:06.801Z,18.20
2024-05-09T17:55:34.792Z,18.20
2024-05-09T17:58:04.703Z,18.10
2024-05-09T18:00:38.234Z,17.90
2024-05-09T18:03:14.213Z,17.80
2024-05-09T18:05:43.195Z,17.80
2024-05-09T18:08:13.550Z,17.70
2024-05-09T18:10:41.622Z,17.60
2024-05-09T18:13:09.700Z,17.50
2024-05-09T18:15:37.539Z,17.40
2024-05-09T18:18:07.196Z,17.40
2024-05-09T18:20:43.113Z,17.30
2024-05-09T18:23:16.381Z,17.10
2024-05-09T18:25:45.209Z,17.00
2024-05-09T18:28:12.675Z,16.90
2024-05-09T18:30:40.495Z,16.80
2024-05-09T18:33:11.558Z,16.60
2024-05-09T18:35:41.041Z,16.50
2024-05-09T18:38:09.217Z,16.50
2024-05-09T18:40:38.833Z,16.40
2024-05-09T18:43:08.897Z,16.30
2024-05-09T18:45:40.120Z,16.20
2024-05-09T18:48:09.115Z,16.10
2024-05-09T18:50:39.770Z,16.00
2024-05-09T18:53:13.261Z,15.90
2024-05-09T18:55:41.742Z,15.80
2024-05-09T18:58:08.985Z,15.60
2024-05-09T19:00:38.931Z,15.50
2024-05-09T19:03:11.234Z,15.40
2024-05-09T19:05:41.241Z,15.20
2024-05-09T19:08:09.395Z,15.00
2024-05-09T19:10:38.443Z,14.80
2024-05-09T19:13:10.181Z,14.80
2024-05-09T19:15:43.232Z,14.60
2024-05-09T19:18:15.268Z,14.40
2024-05-09T19:20:43.518Z,14.00
2024-05-09T19:23:12.054Z,13.90
2024-05-09T19:25:40.589Z,13.80
2024-05-09T19:28:09.544Z,13.70
2024-05-09T19:30:40.887Z,13.70
2024-05-09T19:33:12.478Z,13.70
2024-05-09T19:35:40.569Z,13.70
2024-05-09T19:38:08.077Z,13.60
2024-05-09T19:40:35.995Z,13.40
2024-05-09T19:43:04.968Z,13.30
2024-05-09T19:45:34.028Z,13.10
2024-05-09T19:48:04.088Z,13.00
2024-05-09T19:50:39.720Z,12.90
2024-05-09T19:53:11.594Z,12.90
2024-05-09T19:55:39.110Z,13.00
2024-05-09T19:58:31.684Z,12.80
2024-05-09T20:01:06.155Z,12.70
2024-05-09T20:03:37.460Z,12.60
2024-05-09T20:06:06.319Z,12.60
2024-05-09T20:08:33.394Z,12.60
2024-05-09T20:11:02.504Z,12.40
2024-05-09T20:13:29.561Z,12.30
2024-05-09T20:15:56.802Z,12.20
2024-05-09T20:18:26.746Z,12.00
2024-05-09T20:20:54.399Z,12.00
2024-05-09T20:23:21.883Z,11.80
2024-05-09T20:25:50.005Z,11.80
2024-05-09T20:28:18.405Z,11.70
2024-05-09T20:30:45.925Z,11.80
2024-05-09T20:33:14.200Z,11.80
2024-05-09T20:35:41.602Z,11.80
2024-05-09T20:38:08.594Z,11.70
2024-05-09T20:40:39.297Z,11.70
2024-05-09T20:43:12.486Z,11.60
2024-05-09T20:45:41.270Z,11.60
2024-05-09T20:48:09.820Z,11.40
2024-05-09T20:50:41.092Z,11.40
2024-05-09T20:53:12.493Z,11.20
2024-05-09T20:55:40.781Z,11.10
2024-05-09T20:58:08.866Z,11.00
2024-05-09T21:00:40.390Z,11.00
2024-05-09T21:03:11.704Z,11.10
2024-05-09T21:05:39.618Z,11.10
2024-05-09T21:08:08.423Z,11.10
2024-05-09T21:10:36.395Z,11.00
2024-05-09T21:13:04.762Z,10.90
2024-05-09T21:15:33.432Z,10.80
2024-05-09T21:18:00.961Z,10.70
2024-05-09T21:20:31.739Z,10.70
2024-05-09T21:23:02.771Z,10.50
2024-05-09T21:25:30.455Z,10.60
2024-05-09T21:27:57.526Z,10.50
2024-05-09T21:30:36.981Z,10.50
2024-05-09T21:33:09.934Z,10.40
2024-05-09T21:35:40.537Z,10.30
2024-05-09T21:38:07.935Z,10.10
2024-05-09T21:40:37.042Z,10.00
2024-05-09T21:43:06.827Z,10.00
2024-05-09T21:45:35.061Z,10.20
2024-05-09T21:48:06.750Z,10.30
2024-05-09T21:50:39.972Z,10.30
2024-05-09T21:53:09.760Z,10.00
2024-05-09T21:55:36.845Z,10.00
2024-05-09T21:58:04.245Z,10.10
2024-05-09T22:00:36.967Z,10.00
